Aviation

FTHA31 MTPP 151700
TAF MTPP 151700Z 1518/1618 10014KT 9000 FEW026
BECMG 1519/1522 18008KT
FM160400 VRB02KT 7000 NSC
FM161400 09012KT 9999 FEW024=